Time;durP1;ratioP1;P1;durP2;ratioP2;P2;SDS_P1;SDS_P2;PMS_P1;PMS_P2;Temp;Humidity;BMP_temperature;BMP_pressure;BME280_temperature;BME280_humidity;BME280_pressure;Samples;Min_cycle;Max_cycle;Signal;HPM_P1;HPM_P2
2022/01/07 00:01:19;;;;;;;11.30;6.28;;;;;;;;;;5034322;28;20021;-76
2022/01/07 00:03:45;;;;;;;10.30;4.88;;;;;;;;;;5033169;28;20065;-76
2022/01/07 00:06:11;;;;;;;12.45;5.18;;;;;;;;;;5034339;28;20026;-76
2022/01/07 00:08:37;;;;;;;12.07;5.32;;;;;;;;;;5033513;28;20042;-76
2022/01/07 00:11:03;;;;;;;14.00;5.93;;;;;;;;;;5033667;28;20037;-76
2022/01/07 00:13:29;;;;;;;15.32;6.15;;;;;;;;;;5033804;28;20044;-77
2022/01/07 00:15:56;;;;;;;16.95;8.02;;;;;;;;;;5033509;28;20747;-76
2022/01/07 00:18:23;;;;;;;15.30;6.43;;;;;;;;;;5033654;28;20033;-77
2022/01/07 00:20:49;;;;;;;13.95;6.15;;;;;;;;;;5033420;28;20557;-76
2022/01/07 00:23:15;;;;;;;11.82;6.05;;;;;;;;;;5033543;28;20141;-76
2022/01/07 00:25:41;;;;;;;16.88;9.30;;;;;;;;;;5033354;28;20154;-76
2022/01/07 00:28:08;;;;;;;21.27;12.05;;;;;;;;;;5034287;28;20029;-76
2022/01/07 00:30:34;;;;;;;23.65;12.25;;;;;;;;;;5032920;28;20034;-76
2022/01/07 00:33:00;;;;;;;20.65;12.32;;;;;;;;;;5033964;28;20033;-76
2022/01/07 00:35:26;;;;;;;21.70;10.07;;;;;;;;;;5033489;28;20067;-76
2022/01/07 00:37:52;;;;;;;19.17;9.88;;;;;;;;;;5033580;28;20041;-76
2022/01/07 00:40:20;;;;;;;20.25;10.35;;;;;;;;;;5032873;28;20061;-76
2022/01/07 00:42:46;;;;;;;15.43;7.32;;;;;;;;;;5033906;28;20029;-76
2022/01/07 00:45:12;;;;;;;16.80;9.18;;;;;;;;;;5032696;28;20068;-76
2022/01/07 00:47:38;;;;;;;42.60;23.10;;;;;;;;;;5033683;28;20033;-77
2022/01/07 00:50:05;;;;;;;45.28;23.92;;;;;;;;;;5032861;28;20044;-76
2022/01/07 00:52:32;;;;;;;25.23;11.88;;;;;;;;;;5032631;28;20084;-76
2022/01/07 00:54:59;;;;;;;21.75;8.50;;;;;;;;;;5033277;28;20802;-76
2022/01/07 00:57:25;;;;;;;25.77;12.63;;;;;;;;;;5033015;28;20029;-76
2022/01/07 00:59:51;;;;;;;22.42;11.40;;;;;;;;;;5033045;28;20057;-77
2022/01/07 01:02:17;;;;;;;27.17;13.40;;;;;;;;;;5032418;28;20385;-76
2022/01/07 01:04:44;;;;;;;30.77;16.00;;;;;;;;;;5033352;28;20033;-77
2022/01/07 01:07:11;;;;;;;23.52;12.40;;;;;;;;;;5032526;28;20121;-76
2022/01/07 01:09:37;;;;;;;18.08;8.70;;;;;;;;;;5032041;28;20042;-76
2022/01/07 01:12:03;;;;;;;14.85;5.72;;;;;;;;;;5032244;28;20079;-76
2022/01/07 01:14:30;;;;;;;14.90;6.30;;;;;;;;;;5032596;28;20065;-76
2022/01/07 01:16:56;;;;;;;16.33;6.53;;;;;;;;;;5031995;28;20100;-76
2022/01/07 01:19:22;;;;;;;14.18;6.25;;;;;;;;;;5032847;28;20090;-77
2022/01/07 01:21:49;;;;;;;15.80;6.10;;;;;;;;;;5028854;28;20104;-76
2022/01/07 01:24:15;;;;;;;15.48;7.10;;;;;;;;;;5012887;28;20026;-76
2022/01/07 01:26:41;;;;;;;15.38;6.88;;;;;;;;;;5026793;28;20040;-76
2022/01/07 01:29:07;;;;;;;15.18;6.93;;;;;;;;;;5032517;28;20048;-76
2022/01/07 01:31:35;;;;;;;16.33;6.82;;;;;;;;;;5032230;28;20032;-76
2022/01/07 01:34:02;;;;;;;18.63;8.95;;;;;;;;;;5031829;28;20068;-76
2022/01/07 01:36:28;;;;;;;15.40;7.55;;;;;;;;;;5032181;28;20727;-76
2022/01/07 01:38:54;;;;;;;18.50;8.23;;;;;;;;;;5031883;28;20037;-76
2022/01/07 01:41:20;;;;;;;15.45;6.80;;;;;;;;;;5031940;28;20040;-76
2022/01/07 01:43:48;;;;;;;16.63;7.78;;;;;;;;;;5031531;28;20272;-76
2022/01/07 01:46:15;;;;;;;15.15;7.45;;;;;;;;;;5031802;28;20029;-76
2022/01/07 01:48:41;;;;;;;15.15;6.88;;;;;;;;;;5031227;28;20037;-76
2022/01/07 01:51:07;;;;;;;21.42;9.60;;;;;;;;;;5031759;28;20431;-76
2022/01/07 01:53:33;;;;;;;21.70;9.63;;;;;;;;;;5022584;28;20042;-76
2022/01/07 01:55:59;;;;;;;18.92;9.50;;;;;;;;;;5022212;28;20380;-76
2022/01/07 01:58:26;;;;;;;18.55;9.32;;;;;;;;;;5030678;28;20040;-76
2022/01/07 02:00:52;;;;;;;22.90;11.38;;;;;;;;;;5031680;28;20042;-76
2022/01/07 02:03:18;;;;;;;20.27;10.25;;;;;;;;;;5031002;28;20050;-76
2022/01/07 02:05:47;;;;;;;19.63;9.98;;;;;;;;;;5031428;28;20029;-76
2022/01/07 02:08:13;;;;;;;20.02;9.35;;;;;;;;;;5031356;28;20060;-76
2022/01/07 02:10:39;;;;;;;22.17;9.48;;;;;;;;;;5031105;28;20076;-76
2022/01/07 02:13:05;;;;;;;14.63;7.47;;;;;;;;;;5032061;28;20030;-76
2022/01/07 02:15:31;;;;;;;16.20;8.10;;;;;;;;;;5020253;28;20117;-76
2022/01/07 02:17:57;;;;;;;15.18;6.13;;;;;;;;;;5030828;28;20136;-76
2022/01/07 02:20:25;;;;;;;13.68;5.18;;;;;;;;;;5031382;28;20049;-76
2022/01/07 02:22:51;;;;;;;11.10;5.65;;;;;;;;;;5031245;28;20041;-76
2022/01/07 02:25:17;;;;;;;16.50;6.32;;;;;;;;;;5031776;28;20045;-76
2022/01/07 02:27:44;;;;;;;15.57;6.13;;;;;;;;;;5031759;28;20029;-76
2022/01/07 02:30:13;;;;;;;16.70;6.85;;;;;;;;;;5030933;28;20116;-76
2022/01/07 02:32:39;;;;;;;13.02;5.35;;;;;;;;;;5031138;28;20108;-76
2022/01/07 02:35:06;;;;;;;13.63;6.28;;;;;;;;;;5030828;28;20048;-76
2022/01/07 02:37:32;;;;;;;11.57;4.70;;;;;;;;;;5031295;28;20490;-76
2022/01/07 02:39:58;;;;;;;9.98;4.32;;;;;;;;;;5030613;28;20128;-76
2022/01/07 02:42:25;;;;;;;10.40;4.07;;;;;;;;;;5031288;28;20037;-77
2022/01/07 02:44:51;;;;;;;10.10;4.13;;;;;;;;;;5030516;28;20469;-76
2022/01/07 02:47:18;;;;;;;11.52;4.55;;;;;;;;;;5030825;28;20037;-76
2022/01/07 02:49:44;;;;;;;14.73;5.15;;;;;;;;;;5031131;28;20472;-77
2022/01/07 02:52:10;;;;;;;12.38;5.13;;;;;;;;;;5031487;28;20030;-76
2022/01/07 02:54:36;;;;;;;23.35;9.90;;;;;;;;;;5030080;28;20248;-76
2022/01/07 02:57:02;;;;;;;21.58;7.75;;;;;;;;;;5031008;28;20100;-76
2022/01/07 02:59:28;;;;;;;19.60;8.60;;;;;;;;;;5029793;28;20742;-76
2022/01/07 03:01:54;;;;;;;10.38;4.53;;;;;;;;;;5030676;28;20049;-76
2022/01/07 03:04:23;;;;;;;10.68;3.72;;;;;;;;;;5030406;28;20033;-76
2022/01/07 03:06:49;;;;;;;11.15;3.90;;;;;;;;;;5031710;28;20433;-76
2022/01/07 03:09:15;;;;;;;10.38;3.80;;;;;;;;;;5030688;28;20033;-76
2022/01/07 03:11:41;;;;;;;12.23;4.15;;;;;;;;;;5030582;28;20067;-76
2022/01/07 03:14:07;;;;;;;9.13;3.70;;;;;;;;;;5030544;28;20442;-76
2022/01/07 03:16:33;;;;;;;10.75;4.70;;;;;;;;;;5029849;28;20029;-76
2022/01/07 03:18:59;;;;;;;9.20;4.05;;;;;;;;;;5030285;28;20041;-76
2022/01/07 03:21:25;;;;;;;9.38;3.95;;;;;;;;;;5029464;28;20025;-76
2022/01/07 03:23:51;;;;;;;11.15;4.30;;;;;;;;;;5030356;28;20044;-76
2022/01/07 03:26:17;;;;;;;8.43;3.78;;;;;;;;;;5030045;28;20029;-76
2022/01/07 03:28:46;;;;;;;13.48;4.47;;;;;;;;;;5030472;28;20386;-76
2022/01/07 03:31:12;;;;;;;14.98;5.40;;;;;;;;;;5029902;28;20518;-76
2022/01/07 03:33:38;;;;;;;12.07;4.72;;;;;;;;;;5029730;28;20044;-76
2022/01/07 03:36:04;;;;;;;12.10;4.93;;;;;;;;;;5029619;28;20033;-76
2022/01/07 03:38:30;;;;;;;10.65;4.80;;;;;;;;;;5030159;28;20585;-76
2022/01/07 03:40:56;;;;;;;12.73;4.80;;;;;;;;;;5030429;28;20032;-76
2022/01/07 03:43:22;;;;;;;21.88;9.15;;;;;;;;;;5031186;28;20038;-76
2022/01/07 03:45:48;;;;;;;12.80;4.47;;;;;;;;;;5028013;28;20025;-76
2022/01/07 03:48:14;;;;;;;12.90;5.55;;;;;;;;;;5024158;28;20037;-76
2022/01/07 03:50:40;;;;;;;10.35;4.88;;;;;;;;;;5030560;28;20024;-76
2022/01/07 03:53:07;;;;;;;13.18;4.82;;;;;;;;;;5030421;28;20180;-76
2022/01/07 03:55:33;;;;;;;11.00;5.03;;;;;;;;;;5030222;28;20072;-77
2022/01/07 03:58:00;;;;;;;11.60;4.82;;;;;;;;;;5030050;28;20375;-77
2022/01/07 04:00:32;;;;;;;13.77;5.40;;;;;;;;;;5030136;28;20045;-76
2022/01/07 04:02:58;;;;;;;;;;;;;;;;;;5030243;28;20400;-76
2022/01/07 04:05:24;;;;;;;12.88;5.72;;;;;;;;;;5030314;28;19909;-76
2022/01/07 04:07:50;;;;;;;14.13;5.28;;;;;;;;;;5029829;28;20522;-76
2022/01/07 04:10:16;;;;;;;14.52;5.60;;;;;;;;;;5030012;28;20527;-76
2022/01/07 04:12:42;;;;;;;15.70;5.90;;;;;;;;;;5029672;28;20030;-76
2022/01/07 04:15:09;;;;;;;11.75;5.20;;;;;;;;;;5029979;28;20559;-76
2022/01/07 04:17:39;;;;;;;13.65;4.95;;;;;;;;;;5029489;28;20061;-76
2022/01/07 04:20:06;;;;;;;11.50;5.25;;;;;;;;;;5029947;28;20588;-76
2022/01/07 04:22:35;;;;;;;12.00;5.03;;;;;;;;;;5029647;28;20029;-76
2022/01/07 04:25:02;;;;;;;10.82;4.60;;;;;;;;;;5030063;28;20033;-76
2022/01/07 04:27:28;;;;;;;10.60;5.53;;;;;;;;;;5029729;28;20075;-76
2022/01/07 04:29:54;;;;;;;11.55;4.20;;;;;;;;;;5029931;28;20061;-76
2022/01/07 04:32:20;;;;;;;8.20;3.15;;;;;;;;;;5030100;28;20076;-76
2022/01/07 04:34:46;;;;;;;6.95;2.20;;;;;;;;;;5030036;28;20049;-76
2022/01/07 04:37:12;;;;;;;8.48;2.25;;;;;;;;;;5029978;28;20471;-76
2022/01/07 04:39:38;;;;;;;7.57;2.50;;;;;;;;;;5029101;28;20045;-76
2022/01/07 04:42:04;;;;;;;10.05;3.17;;;;;;;;;;5029857;28;20029;-76
2022/01/07 04:44:30;;;;;;;6.43;2.33;;;;;;;;;;5030399;28;20048;-76
2022/01/07 04:46:56;;;;;;;7.93;3.17;;;;;;;;;;5033332;28;20030;-76
2022/01/07 04:49:22;;;;;;;8.73;3.15;;;;;;;;;;5032672;28;20069;-76
2022/01/07 04:51:48;;;;;;;13.00;4.18;;;;;;;;;;5033514;28;20072;-76
2022/01/07 04:54:14;;;;;;;9.18;3.92;;;;;;;;;;5031744;28;20045;-76
2022/01/07 04:56:40;;;;;;;8.82;3.72;;;;;;;;;;5033336;28;20033;-76
2022/01/07 04:59:06;;;;;;;8.82;3.35;;;;;;;;;;5033104;28;20124;-77
2022/01/07 05:01:32;;;;;;;7.53;3.40;;;;;;;;;;5019038;28;20136;-76
2022/01/07 05:03:58;;;;;;;7.13;3.42;;;;;;;;;;5032724;28;20474;-76
2022/01/07 05:08:53;;;;;;;10.90;4.07;;;;;;;;;;5033177;28;20920;-77
2022/01/07 05:11:19;;;;;;;7.60;2.80;;;;;;;;;;5032173;28;20033;-76
2022/01/07 05:13:45;;;;;;;7.60;2.42;;;;;;;;;;5032895;28;20061;-76
2022/01/07 05:16:11;;;;;;;9.13;2.53;;;;;;;;;;5031958;28;20037;-76
2022/01/07 05:18:37;;;;;;;7.40;3.20;;;;;;;;;;5032945;28;20809;-76
2022/01/07 05:21:03;;;;;;;9.80;2.83;;;;;;;;;;5032479;28;20850;-76
2022/01/07 05:23:29;;;;;;;11.07;3.08;;;;;;;;;;5032509;28;20033;-76
2022/01/07 05:25:55;;;;;;;10.35;3.20;;;;;;;;;;5032218;28;20025;-76
2022/01/07 05:28:21;;;;;;;8.23;3.60;;;;;;;;;;5032326;28;20033;-76
2022/01/07 05:30:47;;;;;;;7.80;3.30;;;;;;;;;;5032146;28;20025;-75
2022/01/07 05:33:13;;;;;;;12.90;4.75;;;;;;;;;;5032306;28;20034;-77
2022/01/07 05:35:39;;;;;;;11.60;3.42;;;;;;;;;;5031214;28;20022;-76
2022/01/07 05:38:05;;;;;;;12.68;4.75;;;;;;;;;;5032964;28;20377;-76
2022/01/07 05:40:31;;;;;;;10.98;3.88;;;;;;;;;;5027494;28;20038;-76
2022/01/07 05:42:57;;;;;;;8.85;3.67;;;;;;;;;;5023537;28;20053;-76
2022/01/07 05:45:23;;;;;;;11.40;3.88;;;;;;;;;;5031855;28;20440;-76
2022/01/07 05:47:49;;;;;;;10.13;4.07;;;;;;;;;;5032028;28;20064;-76
2022/01/07 05:50:15;;;;;;;9.05;3.45;;;;;;;;;;5032047;28;20033;-76
2022/01/07 05:52:41;;;;;;;9.50;3.28;;;;;;;;;;5031772;28;20729;-76
2022/01/07 05:55:08;;;;;;;11.23;3.33;;;;;;;;;;5031768;28;20488;-76
2022/01/07 05:57:35;;;;;;;8.75;3.83;;;;;;;;;;5028915;28;20041;-76
2022/01/07 06:00:01;;;;;;;7.38;3.22;;;;;;;;;;5011967;28;20571;-76
2022/01/07 06:02:27;;;;;;;9.70;3.80;;;;;;;;;;5029042;28;20061;-76
2022/01/07 06:04:53;;;;;;;12.32;3.55;;;;;;;;;;5031813;28;20117;-76
2022/01/07 06:07:20;;;;;;;9.85;3.40;;;;;;;;;;5016101;28;20113;-76
2022/01/07 06:09:46;;;;;;;6.93;2.33;;;;;;;;;;5022938;28;20067;-76
2022/01/07 06:12:12;;;;;;;6.57;2.30;;;;;;;;;;5016850;28;20060;-76
2022/01/07 06:14:38;;;;;;;7.47;2.28;;;;;;;;;;5030814;28;20040;-76
2022/01/07 06:17:08;;;;;;;7.35;2.53;;;;;;;;;;5025815;28;20029;-76
2022/01/07 06:19:34;;;;;;;7.65;3.60;;;;;;;;;;5031162;28;20037;-76
2022/01/07 06:22:00;;;;;;;13.30;4.35;;;;;;;;;;5031158;28;20117;-76
2022/01/07 06:24:26;;;;;;;10.38;4.18;;;;;;;;;;5031343;28;20424;-76
2022/01/07 06:26:52;;;;;;;9.50;4.50;;;;;;;;;;5030224;28;20029;-76
2022/01/07 06:29:18;;;;;;;11.15;4.75;;;;;;;;;;5031150;28;20029;-76
2022/01/07 06:31:44;;;;;;;19.38;7.32;;;;;;;;;;5030629;28;20033;-77
2022/01/07 06:34:10;;;;;;;16.45;7.25;;;;;;;;;;5030040;28;20439;-76
2022/01/07 06:36:36;;;;;;;17.67;7.57;;;;;;;;;;5029612;28;20040;-76
2022/01/07 06:39:02;;;;;;;23.88;7.93;;;;;;;;;;5029103;28;20036;-76
2022/01/07 06:41:28;;;;;;;23.80;9.30;;;;;;;;;;5030773;28;20048;-76
2022/01/07 06:43:54;;;;;;;11.23;3.35;;;;;;;;;;5030642;28;20042;-76
2022/01/07 06:46:20;;;;;;;10.63;4.57;;;;;;;;;;5030692;28;20052;-76
2022/01/07 06:48:47;;;;;;;14.02;2.42;;;;;;;;;;5029770;28;20049;-76
2022/01/07 06:51:13;;;;;;;4.10;1.42;;;;;;;;;;5027215;28;20034;-76
2022/01/07 06:53:39;;;;;;;4.90;1.77;;;;;;;;;;5011353;28;20046;-76
2022/01/07 06:56:05;;;;;;;10.35;3.60;;;;;;;;;;5019109;28;20547;-76
2022/01/07 06:58:31;;;;;;;11.52;5.18;;;;;;;;;;5029577;28;20054;-76
2022/01/07 07:00:57;;;;;;;20.10;5.75;;;;;;;;;;5030557;28;20029;-76
2022/01/07 07:03:23;;;;;;;24.80;10.68;;;;;;;;;;5029808;28;20140;-76
2022/01/07 07:05:49;;;;;;;46.05;17.70;;;;;;;;;;5030810;28;20052;-76
2022/01/07 07:08:15;;;;;;;42.70;17.98;;;;;;;;;;5029509;28;20033;-76
2022/01/07 07:10:41;;;;;;;18.25;7.38;;;;;;;;;;5030428;28;20480;-77
2022/01/07 07:13:07;;;;;;;57.72;23.85;;;;;;;;;;5030354;28;20044;-76
2022/01/07 07:15:33;;;;;;;25.58;9.15;;;;;;;;;;5030875;28;20076;-76
2022/01/07 07:17:59;;;;;;;15.35;6.13;;;;;;;;;;5021421;28;20040;-76
2022/01/07 07:20:25;;;;;;;13.82;5.22;;;;;;;;;;5030460;28;20037;-76
2022/01/07 07:22:51;;;;;;;11.32;3.97;;;;;;;;;;5027254;28;20392;-76
2022/01/07 07:25:18;;;;;;;9.55;3.22;;;;;;;;;;5021399;28;20026;-76
2022/01/07 07:27:44;;;;;;;9.90;4.80;;;;;;;;;;5021274;28;20038;-76
2022/01/07 07:30:11;;;;;;;6.30;2.50;;;;;;;;;;5029858;28;20053;-76
2022/01/07 07:32:38;;;;;;;11.13;3.40;;;;;;;;;;5030004;28;20040;-77
2022/01/07 07:37:51;;;;;;;7.25;1.98;;;;;;;;;;5008682;28;20170;-77
2022/01/07 07:40:17;;;;;;;7.38;1.75;;;;;;;;;;5029693;28;20037;-76
2022/01/07 07:42:43;;;;;;;5.60;2.33;;;;;;;;;;5029963;28;20034;-76
2022/01/07 07:45:13;;;;;;;14.48;5.90;;;;;;;;;;5030190;28;20030;-76
2022/01/07 07:47:39;;;;;;;14.13;6.55;;;;;;;;;;5029772;28;20036;-76
2022/01/07 07:50:05;;;;;;;22.45;8.68;;;;;;;;;;5030023;28;20044;-76
2022/01/07 07:52:31;;;;;;;19.13;8.90;;;;;;;;;;5029523;28;20044;-77
2022/01/07 07:54:57;;;;;;;20.10;9.38;;;;;;;;;;5029985;28;20043;-76
2022/01/07 07:57:23;;;;;;;16.77;6.40;;;;;;;;;;5028417;28;20037;-76
2022/01/07 07:59:49;;;;;;;13.70;5.63;;;;;;;;;;5028390;28;20415;-77
2022/01/07 08:02:15;;;;;;;13.75;5.85;;;;;;;;;;5028624;28;20046;-76
2022/01/07 08:04:41;;;;;;;26.00;9.13;;;;;;;;;;5029825;28;20026;-76
2022/01/07 08:07:08;;;;;;;19.73;6.95;;;;;;;;;;5018688;28;20034;-76
2022/01/07 08:09:38;;;;;;;21.88;8.88;;;;;;;;;;5029450;28;20040;-77
2022/01/07 08:12:17;;;;;;;20.17;9.48;;;;;;;;;;5030374;28;20034;-77
2022/01/07 08:17:28;;;;;;;11.93;4.90;;;;;;;;;;5012004;28;20204;-76
2022/01/07 08:19:54;;;;;;;37.15;17.10;;;;;;;;;;5033082;28;20030;-76
2022/01/07 08:22:20;;;;;;;29.20;12.82;;;;;;;;;;5033539;28;20033;-76
2022/01/07 08:24:46;;;;;;;27.42;11.15;;;;;;;;;;5033323;28;20669;-77
2022/01/07 08:27:13;;;;;;;9.50;3.38;;;;;;;;;;5033524;28;20061;-76
2022/01/07 08:29:40;;;;;;;12.25;2.38;;;;;;;;;;5033076;28;20108;-76
2022/01/07 08:34:53;;;;;;;7.25;2.47;;;;;;;;;;5029430;28;20049;-76
2022/01/07 08:37:27;;;;;;;10.57;3.10;;;;;;;;;;5014652;28;20037;-76
2022/01/07 08:39:54;;;;;;;14.13;5.82;;;;;;;;;;5021353;28;20033;-76
2022/01/07 08:42:20;;;;;;;21.10;9.25;;;;;;;;;;5027445;28;20025;-76
2022/01/07 08:44:46;;;;;;;17.10;6.93;;;;;;;;;;5024147;28;20025;-76
2022/01/07 08:47:12;;;;;;;10.10;4.03;;;;;;;;;;5032293;28;20030;-76
2022/01/07 08:49:38;;;;;;;12.15;3.88;;;;;;;;;;5026486;28;20089;-76
2022/01/07 08:52:04;;;;;;;7.68;2.92;;;;;;;;;;5018020;28;20563;-76
2022/01/07 08:54:30;;;;;;;24.73;8.52;;;;;;;;;;5032936;28;20057;-76
2022/01/07 08:56:56;;;;;;;34.05;14.32;;;;;;;;;;5033029;28;20136;-76
2022/01/07 08:59:22;;;;;;;35.13;19.35;;;;;;;;;;5032385;28;20038;-76
2022/01/07 09:01:48;;;;;;;23.27;9.18;;;;;;;;;;5032103;28;20034;-76
2022/01/07 09:04:15;;;;;;;20.65;8.25;;;;;;;;;;5032902;28;20108;-76
2022/01/07 09:06:41;;;;;;;27.85;11.50;;;;;;;;;;5032534;28;20065;-76
2022/01/07 09:09:07;;;;;;;29.17;11.27;;;;;;;;;;5032854;28;20429;-76
2022/01/07 09:11:33;;;;;;;23.52;10.45;;;;;;;;;;5032151;28;20033;-76
2022/01/07 09:13:59;;;;;;;14.38;5.53;;;;;;;;;;5032748;28;20036;-76
2022/01/07 09:16:25;;;;;;;14.38;7.05;;;;;;;;;;5032215;28;20037;-76
2022/01/07 09:18:51;;;;;;;19.63;8.93;;;;;;;;;;5031675;28;20036;-76
2022/01/07 09:21:18;;;;;;;20.48;9.25;;;;;;;;;;5032184;28;20132;-76
2022/01/07 09:23:44;;;;;;;11.00;4.03;;;;;;;;;;5032625;28;20442;-76
2022/01/07 09:26:12;;;;;;;10.77;4.22;;;;;;;;;;5032063;28;20075;-76
2022/01/07 09:28:38;;;;;;;10.23;4.35;;;;;;;;;;5032571;28;20021;-76
2022/01/07 09:31:04;;;;;;;12.07;4.28;;;;;;;;;;5021063;28;20053;-76
2022/01/07 09:33:30;;;;;;;16.70;7.05;;;;;;;;;;5032199;28;20412;-76
2022/01/07 09:35:56;;;;;;;17.45;5.93;;;;;;;;;;5028471;28;20049;-76
2022/01/07 09:38:22;;;;;;;14.98;6.88;;;;;;;;;;5032445;28;20385;-76
2022/01/07 09:40:51;;;;;;;22.02;10.68;;;;;;;;;;5031415;28;20098;-76
2022/01/07 09:43:17;;;;;;;19.10;8.98;;;;;;;;;;5025185;28;20408;-76
2022/01/07 09:45:43;;;;;;;28.15;11.43;;;;;;;;;;5031837;28;20040;-76
2022/01/07 09:48:09;;;;;;;34.47;13.80;;;;;;;;;;5031609;28;20052;-76
2022/01/07 09:50:35;;;;;;;22.23;6.75;;;;;;;;;;5032118;28;20038;-76
2022/01/07 09:53:05;;;;;;;12.27;4.40;;;;;;;;;;5031773;28;20040;-76
2022/01/07 09:55:31;;;;;;;8.60;2.50;;;;;;;;;;5012228;28;20048;-76
2022/01/07 09:57:57;;;;;;;14.43;2.47;;;;;;;;;;5025247;28;20029;-76
2022/01/07 10:00:23;;;;;;;6.25;2.55;;;;;;;;;;5031520;28;20128;-76
2022/01/07 10:02:59;;;;;;;9.75;3.13;;;;;;;;;;5030868;28;20381;-76
2022/01/07 10:05:26;;;;;;;9.27;3.88;;;;;;;;;;5031069;28;20846;-77
2022/01/07 10:07:52;;;;;;;11.45;5.22;;;;;;;;;;5030516;28;20025;-76
2022/01/07 10:10:19;;;;;;;17.52;7.05;;;;;;;;;;5031686;28;20145;-76
2022/01/07 10:12:50;;;;;;;11.70;5.60;;;;;;;;;;5031408;28;20127;-76
2022/01/07 10:15:18;;;;;;;12.45;3.53;;;;;;;;;;5023746;28;20038;-77
2022/01/07 10:17:55;;;;;;;10.38;4.35;;;;;;;;;;5031444;28;20033;-76
2022/01/07 10:20:25;;;;;;;10.05;5.05;;;;;;;;;;5021029;28;20041;-76
2022/01/07 10:22:54;;;;;;;13.15;4.50;;;;;;;;;;5031769;28;20037;-76
2022/01/07 10:25:21;;;;;;;11.55;3.70;;;;;;;;;;5030937;28;20079;-76
2022/01/07 10:27:47;;;;;;;12.25;5.07;;;;;;;;;;5015891;28;20033;-76
2022/01/07 10:30:15;;;;;;;11.18;4.35;;;;;;;;;;5030782;28;20124;-76
2022/01/07 10:32:41;;;;;;;10.02;3.97;;;;;;;;;;5021486;28;20558;-76
2022/01/07 10:35:08;;;;;;;14.90;5.28;;;;;;;;;;5014267;28;20048;-76
2022/01/07 10:37:38;;;;;;;11.80;4.15;;;;;;;;;;5031732;28;20053;-76
2022/01/07 10:40:24;;;;;;;21.63;12.30;;;;;;;;;;5030404;28;20091;-76
2022/01/07 10:42:50;;;;;;;18.40;8.82;;;;;;;;;;5013087;28;20045;-76
2022/01/07 10:45:17;;;;;;;14.75;5.13;;;;;;;;;;5030575;28;20030;-76
2022/01/07 10:47:48;;;;;;;18.95;4.68;;;;;;;;;;5025033;28;20025;-76
2022/01/07 10:50:17;;;;;;;12.18;4.25;;;;;;;;;;5031082;28;20376;-76
2022/01/07 10:52:43;;;;;;;10.50;3.83;;;;;;;;;;5024870;28;20115;-76
2022/01/07 10:55:18;;;;;;;8.82;3.03;;;;;;;;;;5031145;28;20578;-76
2022/01/07 10:57:45;;;;;;;8.32;2.97;;;;;;;;;;5030394;28;20030;-77
2022/01/07 11:00:13;;;;;;;8.35;3.35;;;;;;;;;;5027755;28;20125;-76
2022/01/07 11:02:40;;;;;;;6.60;2.25;;;;;;;;;;5029998;28;20053;-77
2022/01/07 11:05:07;;;;;;;11.52;4.13;;;;;;;;;;5030529;28;20030;-76
2022/01/07 11:07:33;;;;;;;9.90;4.38;;;;;;;;;;5030286;28;20026;-77
2022/01/07 11:09:59;;;;;;;11.07;4.20;;;;;;;;;;5026668;28;20053;-76
2022/01/07 11:12:26;;;;;;;10.68;3.60;;;;;;;;;;5029984;28;20037;-76
2022/01/07 11:14:52;;;;;;;13.23;3.00;;;;;;;;;;5030349;28;20064;-76
2022/01/07 11:17:21;;;;;;;10.05;3.58;;;;;;;;;;5029776;28;20456;-76
2022/01/07 11:19:51;;;;;;;9.90;2.53;;;;;;;;;;5029966;28;20037;-77
2022/01/07 11:22:19;;;;;;;8.10;2.60;;;;;;;;;;5029876;28;20036;-76
2022/01/07 11:24:54;;;;;;;7.93;2.67;;;;;;;;;;5029940;28;20057;-76
2022/01/07 11:27:27;;;;;;;9.68;3.60;;;;;;;;;;5030548;28;20028;-76
2022/01/07 11:29:54;;;;;;;7.18;3.25;;;;;;;;;;5029858;28;20400;-76
2022/01/07 11:32:26;;;;;;;7.57;2.35;;;;;;;;;;5026018;28;20040;-76
2022/01/07 11:35:13;;;;;;;5.28;2.17;;;;;;;;;;5029189;28;20107;-76
2022/01/07 11:37:42;;;;;;;6.22;2.22;;;;;;;;;;5005431;28;20105;-77
2022/01/07 11:40:08;;;;;;;7.50;2.80;;;;;;;;;;5024097;28;20484;-76
2022/01/07 11:42:41;;;;;;;6.88;2.30;;;;;;;;;;5030462;28;20037;-76
2022/01/07 11:45:29;;;;;;;7.22;2.30;;;;;;;;;;5029561;28;20038;-76
2022/01/07 11:47:56;;;;;;;14.10;5.38;;;;;;;;;;5030491;28;20121;-76
2022/01/07 11:50:25;;;;;;;21.80;10.02;;;;;;;;;;5029571;28;20064;-77
2022/01/07 11:53:04;;;;;;;19.30;7.30;;;;;;;;;;5024872;28;20049;-76
2022/01/07 11:55:31;;;;;;;14.00;4.10;;;;;;;;;;5034171;28;20048;-76
2022/01/07 11:58:05;;;;;;;9.40;3.80;;;;;;;;;;5034901;28;20884;-76
2022/01/07 12:00:51;;;;;;;8.80;2.60;;;;;;;;;;5033892;28;20633;-76
2022/01/07 12:03:36;;;;;;;9.50;2.95;;;;;;;;;;5013812;28;20459;-76
2022/01/07 12:06:29;;;;;;;9.32;3.05;;;;;;;;;;5028201;28;20037;-76
2022/01/07 12:08:58;;;;;;;9.40;2.92;;;;;;;;;;5034172;28;20661;-76
2022/01/07 12:11:25;;;;;;;9.68;3.25;;;;;;;;;;5025883;28;20124;-76
2022/01/07 12:13:51;;;;;;;9.55;3.38;;;;;;;;;;5032901;28;20080;-76
2022/01/07 12:16:20;;;;;;;7.55;3.05;;;;;;;;;;5031798;28;20025;-76
2022/01/07 12:18:46;;;;;;;10.05;3.05;;;;;;;;;;5033559;28;20045;-76
2022/01/07 12:21:12;;;;;;;11.25;3.70;;;;;;;;;;5032867;28;20113;-76
2022/01/07 12:23:39;;;;;;;10.82;4.43;;;;;;;;;;5032805;28;20842;-76
2022/01/07 12:26:06;;;;;;;10.75;5.25;;;;;;;;;;5033393;28;20494;-76
2022/01/07 12:28:45;;;;;;;17.05;6.93;;;;;;;;;;5026950;28;20034;-76
2022/01/07 12:31:12;;;;;;;17.17;7.22;;;;;;;;;;5023795;28;20022;-76
2022/01/07 12:33:54;;;;;;;16.15;5.28;;;;;;;;;;5032475;28;20040;-76
2022/01/07 12:36:34;;;;;;;19.77;10.40;;;;;;;;;;5023117;28;20025;-76
2022/01/07 12:39:00;;;;;;;13.05;5.63;;;;;;;;;;5023806;28;20645;-76
2022/01/07 12:41:26;;;;;;;13.02;3.83;;;;;;;;;;5033016;28;20029;-76
2022/01/07 12:44:10;;;;;;;9.27;3.85;;;;;;;;;;5032517;28;20029;-76
2022/01/07 12:46:37;;;;;;;11.63;3.33;;;;;;;;;;5033239;28;20033;-76
2022/01/07 12:49:03;;;;;;;20.02;7.30;;;;;;;;;;5032584;28;20076;-76
2022/01/07 12:51:29;;;;;;;16.70;8.27;;;;;;;;;;5033063;28;20156;-76
2022/01/07 12:54:22;;;;;;;15.57;5.85;;;;;;;;;;5032271;28;20120;-77
2022/01/07 12:56:48;;;;;;;18.23;7.65;;;;;;;;;;5028910;28;20050;-76
2022/01/07 12:59:17;;;;;;;22.75;8.73;;;;;;;;;;5031652;28;20087;-76
2022/01/07 13:01:49;;;;;;;14.15;7.80;;;;;;;;;;5032820;28;20483;-76
2022/01/07 13:04:17;;;;;;;15.35;7.50;;;;;;;;;;5031595;28;20881;-76
2022/01/07 13:06:47;;;;;;;13.57;7.68;;;;;;;;;;5032197;28;20460;-77
2022/01/07 13:09:15;;;;;;;12.75;6.90;;;;;;;;;;5031595;28;20044;-76
2022/01/07 13:11:41;;;;;;;13.73;7.07;;;;;;;;;;5032623;28;20075;-76
2022/01/07 13:14:08;;;;;;;14.90;6.40;;;;;;;;;;5032458;28;20620;-76
2022/01/07 13:16:34;;;;;;;12.13;5.68;;;;;;;;;;5032084;28;20552;-76
2022/01/07 13:19:10;;;;;;;18.25;6.20;;;;;;;;;;5031973;28;20034;-76
2022/01/07 13:21:38;;;;;;;11.50;3.97;;;;;;;;;;5032157;28;20037;-76
2022/01/07 13:24:05;;;;;;;12.40;3.67;;;;;;;;;;5032498;28;20029;-76
2022/01/07 13:26:32;;;;;;;10.82;3.05;;;;;;;;;;5031959;28;20128;-76
2022/01/07 13:29:15;;;;;;;13.18;5.65;;;;;;;;;;5032168;28;20036;-76
2022/01/07 13:31:43;;;;;;;12.50;6.00;;;;;;;;;;5027781;28;20044;-76
2022/01/07 13:34:10;;;;;;;10.02;4.40;;;;;;;;;;5032187;28;20025;-76
2022/01/07 13:36:41;;;;;;;6.60;2.83;;;;;;;;;;5031166;28;20040;-76
2022/01/07 13:39:08;;;;;;;6.30;2.35;;;;;;;;;;5031654;28;20061;-76
2022/01/07 13:41:34;;;;;;;11.00;3.63;;;;;;;;;;5031556;28;20107;-76
2022/01/07 13:44:05;;;;;;;5.13;1.95;;;;;;;;;;5031865;28;20029;-76
2022/01/07 13:46:33;;;;;;;8.57;2.60;;;;;;;;;;5017282;28;20070;-76
2022/01/07 13:49:05;;;;;;;7.78;2.25;;;;;;;;;;5023493;28;20224;-76
2022/01/07 13:51:31;;;;;;;6.47;1.90;;;;;;;;;;5020937;28;20084;-76
2022/01/07 13:54:16;;;;;;;11.23;2.67;;;;;;;;;;5031247;28;20037;-75
2022/01/07 13:56:59;;;;;;;7.78;1.90;;;;;;;;;;5027868;28;20075;-76
2022/01/07 13:59:26;;;;;;;5.82;1.88;;;;;;;;;;5009574;28;20051;-76
2022/01/07 14:01:53;;;;;;;6.38;1.90;;;;;;;;;;5026677;28;20080;-76
2022/01/07 14:04:21;;;;;;;8.23;1.90;;;;;;;;;;5028217;28;20033;-76
2022/01/07 14:06:48;;;;;;;8.43;2.20;;;;;;;;;;5030873;28;20040;-76
2022/01/07 14:09:18;;;;;;;8.65;3.00;;;;;;;;;;5031086;28;20041;-76
2022/01/07 14:12:00;;;;;;;9.10;3.42;;;;;;;;;;5029349;28;20559;-76
2022/01/07 14:14:34;;;;;;;10.00;4.15;;;;;;;;;;5025127;28;20109;-76
2022/01/07 14:17:07;;;;;;;9.05;3.80;;;;;;;;;;5021509;28;20121;-75
2022/01/07 14:19:56;;;;;;;10.93;4.47;;;;;;;;;;5022630;28;20060;-76
2022/01/07 14:22:22;;;;;;;13.90;4.97;;;;;;;;;;5024421;28;20048;-76
2022/01/07 14:24:48;;;;;;;9.77;3.20;;;;;;;;;;5031376;28;20510;-76
2022/01/07 14:27:27;;;;;;;10.13;3.88;;;;;;;;;;5031692;28;20507;-75
2022/01/07 14:29:53;;;;;;;7.70;2.80;;;;;;;;;;5015497;28;20107;-75
2022/01/07 14:32:20;;;;;;;7.93;2.45;;;;;;;;;;5031584;28;20074;-76
2022/01/07 14:34:48;;;;;;;7.47;3.45;;;;;;;;;;5030117;28;20058;-76
2022/01/07 14:37:15;;;;;;;7.53;2.95;;;;;;;;;;5031147;28;20033;-75
2022/01/07 14:39:42;;;;;;;8.13;2.78;;;;;;;;;;5030481;28;20538;-75
2022/01/07 14:42:08;;;;;;;7.72;2.95;;;;;;;;;;5031462;28;20117;-76
2022/01/07 14:44:34;;;;;;;8.73;3.45;;;;;;;;;;5030330;28;20065;-75
2022/01/07 14:47:00;;;;;;;9.57;4.03;;;;;;;;;;5031172;28;20546;-76